Tiempo atmosférico en la estación meteorológica de Valencia De Alcántara, Cáceres (445 m.)



Fecha
DESCASC
Temp. máxima en grados centígrados (hora)
DESCASC
Temp. mínima en grados centígrados (hora)
DESCASC
Temp. media en grados centígrados
DESCASC
Racha de viento máxima en m/sg (hora)
DESCASC
Velocidad máxima media en intervalos de 10 minutos(hora)
DESCASC
Precipitaciones diarias en mm
DESCASC
Precipitaciones de 00:00 a 06:00 en mm
DESCASC
Precipitaciones de 06:00 a 12:00 en mm
DESCASC
Precipitaciones de 12:00 a 18:00 en mm
DESCASC
Precipitaciones de 18:00 a 24:00 en mm
DESCASC
22-11-2020 17.2 (13:20) 6.3 (01:30) 11.8 5.56 (10:50) 2.78 (11:20) 0 0 0 0 0
21-11-2020 16 (15:50) 4.1 (08:30) 10 5.56 (14:00) 2.22 (23:59) 0 0 0 0 0
20-11-2020 18 (15:40) 8.2 (23:59) 13.1 6.39 (13:20) 3.61 (13:10) 0 0 0 0 0
19-11-2020 20.7 (16:20) 9.3 (00:00) 15 7.22 (13:50) 3.61 (13:50) 0 0 0 0 0
18-11-2020 17.3 (14:20) 10.1 (00:00) 13.7 5 (13:30) 3.33 (15:40) 0.4 0.2 0.2 0 0
17-11-2020 18.3 (15:50) 8.5 (00:00) 13.4 7.78 (15:00) 5 (15:00) 0 0 0 0 0
16-11-2020 17.6 (16:10) 9.8 (00:00) 13.7 4.44 (10:40) 2.5 (10:50) 0 0 0 0 0
15-11-2020 20.5 (14:10) 15 (00:00) 17.8 9.17 (03:50) 5 (05:00) 0 0 0 0 0
14-11-2020 17.5 (16:50) 13.4 (00:00) 15.4 6.67 (05:40) 3.89 (05:50) 1.6 0.2 1.4 0 0
13-11-2020 15.6 (14:20) 8.1 (00:00) 11.9 6.39 (12:50) 4.17 (16:30) 0 0 0 0 0
12-11-2020 17.5 (15:50) 9.1 (00:00) 13.3 6.67 (16:10) 4.17 (16:00) 0 0 0 0 0
11-11-2020 18.1 (15:10) 8.3 (00:00) 13.2 6.67 (12:20) 3.61 (12:20) 0 0 0 0 0
10-11-2020 17.1 (16:20) 7 (00:00) 12.1 4.72 (13:00) 3.06 (19:00) 0 0 0 0 0
09-11-2020 16.5 (17:40) 9.7 (00:00) 13.1 5.28 (02:30) 3.06 (14:20) 3.8 0 0 3.8 0
08-11-2020 17 (12:40) 12.2 (00:00) 14.6 11.67 (10:10) 6.39 (10:10) 9.4 0.2 0.2 8.8 0.2
07-11-2020 17.3 (14:50) 11.7 (00:00) 14.5 9.72 (13:50) 5.56 (14:00) 0.8 0.8 0 0 0
06-11-2020 15.6 (15:30) 11.8 (00:00) 13.7 16.94 (17:20) 8.61 (17:20) 19 5.6 1.8 11.2 0.4
05-11-2020 14.9 (16:50) 10.9 (00:00) 12.9 13.06 (10:00) 7.22 (08:50) 41.8 15.2 8 4.2 14.4
04-11-2020 12.6 (12:30) 7.7 (00:00) 10.2 10.83 (17:10) 6.11 (23:10) 10.4 0 0 0 10.4
03-11-2020 18.6 (16:30) 9.8 (00:00) 14.2 6.67 (15:50) 3.89 (08:40) 0 0 0 0 0
02-11-2020 18.9 (14:00) 14.4 (00:00) 16.6 6.39 (22:10) 3.61 (21:30) 0 0 0 0 0
01-11-2020 20.4 (14:40) 9.8 (00:00) 15.1 5.56 (17:00) 3.06 (16:20) 0 0 0 0 0
31-10-2020 22.6 (14:20) 10 (00:00) 16.3 6.67 (14:40) 3.89 (15:20) 0 0 0 0 0
30-10-2020 23.3 (15:20) 11.2 (00:00) 17.2 6.11 (14:10) 3.33 (14:40) 0 0 0 0 0
29-10-2020 21.3 (16:50) 9.8 (00:00) 15.5 6.94 (13:00) 3.61 (13:30) 0 0 0 0 0
28-10-2020 18.3 (15:40) 11.8 (00:00) 15 6.94 (12:00) 4.17 (12:10) 0.4 0 0.4 0 0
27-10-2020 15.7 (13:30) 7.2 (00:00) 11.4 7.78 (13:10) 4.72 (13:40) 0 0 0 0 0

Gráficas

Temp. máximas Temp. mínimas Temp. medias Precipitaciones Rachas de viento máximas Velocidades máximas media en intervalos de 10 minutos

Datos horarios

Fecha y hora oficial Temperatura (ºC) Velocidad del viento (km/h) Dirección del viento Racha (km/h) Dirección de racha Precipitación (mm) Presión (hPa) Tendencia (hPa) Humedad (%)
2020-11-25 23:00:00 10.9 8 Sudeste 30 Sur 1 955.6 0.2 91
2020-11-25 22:00:00 11.1 11 Sudeste 25 Sudeste 0 955.9 0.4 90
2020-11-25 21:00:00 10.9 11 Sur 19 Sur 0 955.7 0.5 90
2020-11-25 20:00:00 11.5 11 Sur 20 Sur 0 955.4 0.5 87
2020-11-25 19:00:00 11.8 10 Sur 30 Sudeste 0 955.5 0.6 91
2020-11-25 18:00:00 11.6 12 Sur 35 Sur 0 955.2 -0.5 92
2020-11-25 17:00:00 12.1 21 Sur 43 Sudeste 0 954.9 -1.8 90
2020-11-25 16:00:00 12.2 21 Sudeste 40 Sudeste 2.2 954.9 -3.2 93
2020-11-25 15:00:00 11.7 17 Sudeste 39 Sudeste 1.2 955.7 -3.5 93
2020-11-25 14:00:00 11.2 19 Sudeste 48 Sudeste 0.4 956.7 -3 93
2020-11-25 13:00:00 10.8 19 Sudeste 36 Sudeste 1.2 958.1 -1.9 94
2020-11-25 12:00:00 10.4 23 Sudeste 40 Sudeste 0 959.2 -0.9 95
2020-11-25 11:00:00 10 17 Sudeste 32 Sudeste 0.4 959.7 -- 95
2020-11-25 10:00:00 9.8 12 Sudeste 30 Sudeste 2.4 960 -- 95
2020-11-25 09:00:00 9.7 18 Sudeste 39 Sudeste 0.6 960.1 -- 95
2020-11-25 08:00:00 10 14 Sudeste 25 Sudeste 3.8 960.6 -- 95
2020-11-25 07:00:00 9.7 17 Sudeste 30 Sur 0.8 960.8 -- 95
2020-11-25 06:00:00 9.5 15 Sudeste 27 Sur 1.6 961.5 -- 95
2020-11-25 05:00:00 9.4 13 Sur 29 Sudeste 0.2 962.1 -- 94
2020-11-25 04:00:00 10.7 18 Sur 32 Sur 0 962.8 -- 84
2020-11-25 03:00:00 10.4 11 Sudeste 19 Sur 0 963.8 -- 84
2020-11-25 02:00:00 9 4 Sudeste 16 Sudeste 0 964.4 -- 85
2020-11-25 01:00:00 9.3 9 Sudeste 14 Sudeste 0 965.1 -- 83
2020-11-25 00:00:00 10.4 9 Sur 19 Sudeste 0 965.8 -- 80
2020-11-24 23:00:00 11.1 8 Sur 19 Sur 0 966.4 -- 77
2020-11-24 22:00:00 9.6 8 Sur 15 Sur 0 966.9 -- 82
2020-11-24 21:00:00 9.1 9 Sur 13 Sur 0 967.2 -- 88
2020-11-24 20:00:00 10.1 7 Sur 10 Sudeste 0 967.4 -- 84
2020-11-24 19:00:00 11.9 6 Sur 10 Sur 0 967.6 -- 78
2020-11-24 18:00:00 13.2 5 Sur 10 Sur 0 967.5 -- 71
2020-11-24 17:00:00 14.4 5 Sur 16 Sur 0 967.7 -- 65
2020-11-24 16:00:00 14.8 7 Sur 14 Sudoeste 0 967.8 -- 62
2020-11-24 15:00:00 14.8 7 Noroeste 14 Norte 0 968.4 -- 68
2020-11-24 14:00:00 14.3 4 Oeste 15 Nordeste 0 969.3 -- 67
2020-11-24 13:00:00 14 5 Nordeste 14 Nordeste 0 969.9 -- 69
2020-11-24 12:00:00 13.1 6 Nordeste 12 Nordeste 0 971 -- 72
2020-11-24 11:00:00 12.4 5 Nordeste 10 Nordeste 0 971.2 -- 78
2020-11-24 10:00:00 9.7 3 Este 9 Sudoeste 0 971.3 -- 87
2020-11-24 09:00:00 6.1 5 Sur 8 Sudoeste 0 971 -- 93
2020-11-24 08:00:00 5.8 5 Sur 9 Sudoeste 0 970.8 -- 93
2020-11-24 07:00:00 6 8 Sur 10 Sur 0 970.6 -- 93
2020-11-24 06:00:00 6 6 Sudoeste 10 Sudoeste 0 970.5 -- 94
2020-11-24 05:00:00 5.9 5 Sudoeste 9 Sudoeste 0 970.6 -- 93
2020-11-24 04:00:00 6.4 6 Sudeste 9 Sur 0 971.1 -- 93
2020-11-24 03:00:00 6.6 6 Sur 12 Sudoeste 0 971.6 -- 92
2020-11-24 02:00:00 7 7 Sur 12 Sur 0 971.9 -- 92
2020-11-24 01:00:00 6.9 6 Sudoeste 10 Sudoeste 0 972.2 -- 93
2020-11-24 00:00:00 7.2 6 Sudoeste 10 Sudoeste 0 972.5 -- 92
2020-11-23 23:00:00 7.6 6 Sur 9 Sur 0 972.8 -- 92
2020-11-23 22:00:00 8.2 6 Sur 9 Sur 0 972.9 -- 91
2020-11-23 21:00:00 9.2 6 Sur 8 Sur 0 973.1 -- 90
2020-11-23 20:00:00 10.5 5 Sur 9 Sur 0 973 -- 87
2020-11-23 19:00:00 12.2 4 Sudoeste 7 Sudoeste 0 972.9 -- 80
2020-11-23 18:00:00 14.7 3 Nordeste 13 Nordeste 0 972.5 -- 71
2020-11-23 17:00:00 15.8 7 Nordeste 14 Nordeste 0 972.4 -- 66
2020-11-23 16:00:00 15.9 7 Nordeste 15 Oeste 0 972.5 -- 65
2020-11-23 15:00:00 15.6 8 Noroeste 18 Noroeste 0 973 -- 67
2020-11-23 14:00:00 15.9 10 Noroeste 17 Oeste 0 973.6 -- 67
2020-11-23 13:00:00 15.5 6 Norte 11 Norte 0 974.4 -- 64
2020-11-23 12:00:00 13.5 5 Norte 10 Nordeste 0 975 -- 70
2020-11-23 11:00:00 11.8 5 Norte 8 Norte 0 975 -- 76
2020-11-23 10:00:00 8.5 3 Sudoeste 7 Sur 0 974.5 -- 85
2020-11-23 09:00:00 5 4 Sudoeste 9 Sudoeste 0 974.4 -- 92
2020-11-23 08:00:00 4.9 7 Sur 10 Sudeste 0 973.8 -- 93
2020-11-23 07:00:00 4.8 6 Sur 9 Sudoeste 0 973.6 -- 93
2020-11-23 06:00:00 5.1 6 Sudoeste 10 Sudoeste 0 973.8 -- 93
2020-11-23 05:00:00 5.6 5 Sur 8 Sur 0 973.6 -- 92
2020-11-23 04:00:00 5.8 7 Sur 9 Sudoeste 0 973.8 -- 92
2020-11-23 03:00:00 6.2 7 Sudoeste 8 Sudoeste 0 973.9 -- 91
2020-11-23 02:00:00 6.7 7 Sur 10 Sur 0 974.1 -- 90
2020-11-23 01:00:00 7 7 Sur 10 Sudoeste 0 974.5 -- 90
2020-11-23 00:00:00 7.3 7 Sur 10 Sudoeste 0 974.7 -- 90
2020-11-22 23:00:00 7.6 7 Sur 9 Sur 0 974.8 -- 91
2020-11-22 22:00:00 8.2 6 Sur 10 Sudoeste 0 974.6 -- 89
2020-11-22 21:00:00 9.1 6 Sur 9 Sur 0 974.6 -- 87
2020-11-22 20:00:00 10.3 6 Sur 8 Sur 0 974.2 -- 84
2020-11-22 19:00:00 12.9 4 Sudeste 9 Nordeste 0 973.9 -- 74
2020-11-22 18:00:00 14.8 6 Nordeste 14 Norte 0 973.6 -- 68
2020-11-22 17:00:00 16.3 8 Nordeste 15 Nordeste 0 973.5 -- 60
2020-11-22 16:00:00 16.7 7 Nordeste 16 Norte 0 973.4 -- 58
2020-11-22 15:00:00 16.8 6 Nordeste 14 Este 0 973.7 -- 59
2020-11-22 14:00:00 16.8 7 Nordeste 15 Nordeste 0 974.3 -- 58
2020-11-22 13:00:00 16.7 6 Sudeste 18 Sudeste 0 974.9 -- 58
2020-11-22 12:00:00 16.2 8 Sudeste 18 Sudeste 0 975.7 -- 59
2020-11-22 11:00:00 14.8 8 Sudeste 20 Sudeste 0 975.8 -- 67
2020-11-22 10:00:00 11.3 3 Sudeste 8 Sudeste 0 975.3 -- 82
2020-11-22 09:00:00 7.3 3 Sur 6 Sudoeste 0 975 -- 90
2020-11-22 08:00:00 7.6 5 Sudeste 9 Sur 0 974.7 -- 87
2020-11-22 07:00:00 7.4 3 Sudeste 7 Sur 0 974.7 -- 86
2020-11-22 06:00:00 7.9 5 Sudoeste 9 Sudoeste 0 974.3 -- 82
2020-11-22 05:00:00 9.1 0 Calma 10 Sur 0 974.1 -- 75
2020-11-22 04:00:00 8.7 5 Sur 10 Sudoeste 0 974 -- 76
2020-11-22 03:00:00 7 6 Sur 9 Sudoeste 0 973.8 -- 83
2020-11-22 02:00:00 6.3 5 Sur 9 Sudeste 0 973.8 -- 88
2020-11-22 01:00:00 6.5 5 Sur 9 Sur 0 973.9 -- 87
2020-11-22 00:00:00 6.8 8 Sudoeste 11 Sudoeste 0 973.9 -- 85
2020-11-21 23:00:00 7 6 Sur 9 Sur 0 973.9 -- 83
2020-11-21 22:00:00 7.9 7 Sudoeste 11 Sudoeste 0 973.8 -- 79
2020-11-21 21:00:00 7.9 8 Sudoeste 12 Sudoeste 0 973.6 -- 81
2020-11-21 20:00:00 9.1 5 Sur 10 Sur 0 973.4 -- 77
2020-11-21 19:00:00 11.7 5 Sur 7 Sudeste 0 973.1 -- 66
2020-11-21 18:00:00 14.8 4 Este 9 Nordeste 0 972.5 -- 53
2020-11-21 17:00:00 15.8 8 Nordeste 14 Nordeste 0 972.3 -- 47
2020-11-21 16:00:00 15.9 8 Este 15 Nordeste 0 972.3 -- 45
2020-11-21 15:00:00 15.7 6 Nordeste 15 Nordeste 0 972.5 -- 45
2020-11-21 14:00:00 15.1 8 Norte 20 Nordeste 0 973.1 -- 47
2020-11-21 13:00:00 14.2 6 Nordeste 14 Nordeste 0 973.8 -- 53
2020-11-21 12:00:00 12.4 3 Norte 10 Norte 0 974.5 -- 59
2020-11-21 11:00:00 10.9 4 Nordeste 9 Nordeste 0 974.5 -- 60
2020-11-21 10:00:00 7.8 4 Sudoeste 9 Sur 0 974.2 -- 80
2020-11-21 09:00:00 4.5 7 Sur 11 Sudoeste 0 973.7 -- 90
2020-11-21 08:00:00 4.5 3 Sudoeste 8 Sudoeste 0 973.4 -- 90
2020-11-21 07:00:00 5.7 4 Sur 11 Este 0 973 -- 86
2020-11-21 06:00:00 6.3 7 Este 13 Este 0 972.7 -- 85
2020-11-21 05:00:00 5.9 5 Sur 11 Sudoeste 0 972.9 -- 88
2020-11-21 04:00:00 6.1 7 Sur 12 Sur 0 973.2 -- 89
2020-11-21 03:00:00 6.6 5 Sur 10 Sudoeste 0 973.4 -- 88
2020-11-21 02:00:00 7.1 5 Sur 10 Sur 0 973.4 -- 89
2020-11-21 01:00:00 7.6 5 Sur 12 Sudoeste 0 974 -- 89
2020-11-21 00:00:00 8.3 8 Sudoeste 12 Sudoeste 0 974 -- 87
2020-11-20 23:00:00 8.7 7 Sudoeste 11 Sudoeste 0 974.2 -- 83
2020-11-20 22:00:00 9.4 5 Sur 10 Este 0 974.1 -- 80
2020-11-20 21:00:00 11.7 5 Este 13 Este 0 974 -- 71
2020-11-20 20:00:00 13.8 7 Nordeste 11 Este 0 974.1 -- 60
2020-11-20 19:00:00 13.8 5 Sur 9 Nordeste 0 974.1 -- 65
2020-11-20 18:00:00 17 5 Nordeste 14 Nordeste 0 974.4 -- 50
2020-11-20 17:00:00 17.9 8 Nordeste 22 Norte 0 974.1 -- 49
2020-11-20 16:00:00 18 10 Nordeste 18 Norte 0 974.2 -- 50
2020-11-20 15:00:00 17.9 9 Norte 20 Nordeste 0 974.6 -- 56
2020-11-20 14:00:00 17.3 12 Norte 23 Nordeste 0 975.4 -- 59
2020-11-20 13:00:00 16.6 9 Nordeste 19 Nordeste 0 976.1 -- 61
2020-11-20 12:00:00 15.7 10 Nordeste 19 Nordeste 0 977.1 -- 65
2020-11-20 11:00:00 14.4 8 Este 17 Este 0 977.5 -- 70
2020-11-20 10:00:00 12.4 8 Norte 12 Norte 0 977.5 -- 81
2020-11-20 09:00:00 8.5 4 Sudoeste 10 Nordeste 0 977 -- 92
2020-11-20 08:00:00 8.8 3 Sur 8 Sudoeste 0 976.6 -- 93
2020-11-20 07:00:00 9 7 Sur 12 Este 0 976.7 -- 91
2020-11-20 06:00:00 9.2 7 Sur 11 Sudoeste 0 976.9 -- 92
2020-11-20 05:00:00 9.8 5 Sudoeste 13 Sur 0 976.9 -- 88
2020-11-20 04:00:00 10 6 Sur 12 Sudoeste 0 977.4 -- 89
2020-11-20 03:00:00 11.2 5 Sudoeste 12 Sudoeste 0 977.4 -- 86
2020-11-20 02:00:00 14.4 8 Nordeste 15 Nordeste 0 977.7 -- 73
2020-11-20 01:00:00 13.3 5 Norte 13 Norte 0 978.3 -- 83
2020-11-20 00:00:00 11.4 6 Sudoeste 11 Sudoeste 0 978.4 -- 90
2020-11-19 23:00:00 11.4 6 Sudoeste 9 Sudoeste 0 978.4 -- 88
2020-11-19 22:00:00 12.3 3 Sudoeste 8 Sur 0 978.4 -- 86
2020-11-19 21:00:00 12.9 6 Sur 9 Sur 0 978.4 -- 84
2020-11-19 20:00:00 14.4 7 Sur 11 Sudoeste 0 978.4 -- 79
2020-11-19 19:00:00 16 5 Sur 7 Sur 0 978.1 -- 73
2020-11-19 18:00:00 19.6 5 Norte 12 Norte 0 978.1 -- 57
2020-11-19 17:00:00 20.4 8 Norte 22 Norte 0 977.9 -- 55
2020-11-19 16:00:00 20.6 8 Norte 19 Este 0 978.1 -- 55
2020-11-19 15:00:00 20 9 Nordeste 24 Nordeste 0 978 -- 55
2020-11-19 14:00:00 20.2 9 Nordeste 26 Este 0 978.6 -- 51
2020-11-19 13:00:00 18.6 7 Nordeste 17 Norte 0 979.2 -- 63
2020-11-19 12:00:00 16.4 4 Nordeste 24 Noroeste 0 979.4 -- 72
2020-11-19 11:00:00 16.1 4 Norte 9 Norte 0 978.4 -- 77
2020-11-19 10:00:00 12.8 4 Sur 10 Sudoeste 0 978.1 -- 86
2020-11-19 09:00:00 10.3 6 Sur 12 Sudoeste 0 977.7 -- 94
2020-11-19 08:00:00 9.6 5 Sudoeste 9 Sudeste 0 977.1 -- 94
2020-11-19 07:00:00 9.7 6 Sur 9 Sudoeste 0 976.3 -- 94
2020-11-19 06:00:00 10.1 7 Sudoeste 11 Sudoeste 0 975.9 -- 94
2020-11-19 05:00:00 10.8 7 Sur 13 Sudoeste 0 975.3 -- 95
2020-11-19 04:00:00 10.7 6 Sur 10 Sur 0 975.3 -- 96
2020-11-19 03:00:00 10.1 5 Sur 10 Sudoeste 0 975.5 -- 95
2020-11-19 02:00:00 11 6 Sudoeste 9 Sudoeste 0 975.6 -- 95
2020-11-19 01:00:00 11.4 5 Sur 10 Sudoeste 0 975.4 -- 94
2020-11-19 00:00:00 12.2 5 Sur 10 Sudoeste 0 975.5 -- 92
2020-11-18 23:00:00 13.7 9 Sudeste 12 Sur 0 975.3 -- 91
2020-11-18 22:00:00 14.2 6 Este 11 Este 0 975 -- 89
2020-11-18 21:00:00 14.7 4 Sudeste 11 Este 0 975 -- 89
2020-11-18 20:00:00 14.9 6 Este 11 Este 0 974.5 -- 90
2020-11-18 19:00:00 15.1 6 Este 9 Este 0 974.1 -- 90
2020-11-18 18:00:00 16 0 Calma 5 Este 0 973.9 -- 87
2020-11-18 17:00:00 16.2 3 Noroeste 9 Noroeste 0 973.9 -- 86
2020-11-18 16:00:00 16.3 7 Noroeste 18 Noroeste 0 973.9 -- 86
2020-11-18 15:00:00 16.4 10 Noroeste 18 Noroeste 0 973.9 -- 83
2020-11-18 14:00:00 17 6 Noroeste 18 Noroeste 0 973.7 -- 84
2020-11-18 13:00:00 16.5 6 Noroeste 13 Noroeste 0 974.5 -- 92
2020-11-18 12:00:00 14.1 6 Noroeste 10 Noroeste 0 975 -- 97
2020-11-18 11:00:00 13 5 Noroeste 9 Noroeste 0 975.1 -- 97
2020-11-18 10:00:00 13.7 3 Norte 15 Sur 0 974.6 -- 97
2020-11-18 09:00:00 12.7 8 Sur 13 Sudeste 0.2 974.1 -- 98
2020-11-18 08:00:00 12.3 3 Sur 11 Sudeste 0 973.6 -- 98
2020-11-18 07:00:00 12.4 3 Este 8 Sudeste 0 973.6 -- 98
2020-11-18 06:00:00 13.1 2 Sudeste 9 Sudeste 0 973.3 -- 98
2020-11-18 05:00:00 12.5 2 Sur 9 Sudeste 0 973.1 -- 98
2020-11-18 04:00:00 10.5 4 Sur 10 Sudeste 0 973.3 -- 98
2020-11-18 03:00:00 10.4 5 Sudeste 9 Sudeste 0 973.5 -- 98
2020-11-18 02:00:00 10.1 3 Sudoeste 6 Sur 0 973.9 -- 97
2020-11-18 01:00:00 10.9 0 Calma 4 Sudoeste 0.2 974.2 -- 97
2020-11-18 00:00:00 11.2 3 Oeste 6 Noroeste 0 974.2 -- 97
2020-11-17 23:00:00 10.9 3 Noroeste 6 Noroeste 0 974.3 -- 96
2020-11-17 22:00:00 12.5 3 Norte 9 Sudeste 0 974 -- 94
2020-11-17 21:00:00 13.4 3 Sur 12 Sudeste 0 973.8 -- 95
2020-11-17 20:00:00 13.2 4 Sudeste 11 Este 0 973.5 -- 94
2020-11-17 19:00:00 13.8 6 Este 12 Este 0 973.3 -- 92
2020-11-17 18:00:00 15.3 6 Este 16 Este 0 973 -- 87
2020-11-17 17:00:00 16.3 10 Este 18 Sur 0 973 -- 84
2020-11-17 16:00:00 17.9 13 Sudeste 24 Sur 0 972.8 -- 76
2020-11-17 15:00:00 16.4 18 Este 28 Este 0 972.8 -- 85
2020-11-17 14:00:00 16.1 16 Este 24 Sudeste 0 973.2 -- 86
2020-11-17 13:00:00 15.6 9 Sudeste 20 Sudeste 0 974 -- 89
2020-11-17 12:00:00 15 9 Sudeste 18 Este 0 974.6 -- 90
2020-11-17 11:00:00 14 10 Sudeste 17 Sudeste 0 974.5 -- 97
2020-11-17 10:00:00 13.1 6 Sudeste 17 Sudeste 0 974.4 -- 98
2020-11-17 09:00:00 13 7 Sudeste 17 Sudeste 0 973.8 -- 98
2020-11-17 08:00:00 12.2 2 Este 12 Sudeste 0 973.2 -- 98
2020-11-17 07:00:00 12.1 0 Calma 11 Sur 0 972.9 -- 98
2020-11-17 06:00:00 10.4 4 Sur 8 Sur 0 972.8 -- 97
2020-11-17 05:00:00 9 5 Sudoeste 9 Sudoeste 0 972.8 -- 96
2020-11-17 04:00:00 8.6 5 Sur 9 Sur 0 973.1 -- 96
2020-11-17 03:00:00 9.6 7 Sudoeste 10 Sur 0 973.2 -- 96
2020-11-17 02:00:00 9 6 Sudoeste 10 Sudoeste 0 973.3 -- 95
2020-11-17 01:00:00 9.5 6 Sudoeste 12 Sudoeste 0 973.5 -- 95
2020-11-17 00:00:00 9.8 5 Sur 9 Sudoeste 0 973.5 -- 94
2020-11-16 23:00:00 10.3 6 Sur 10 Sudoeste 0 973.4 -- 94
2020-11-16 22:00:00 10.8 7 Sudoeste 9 Sudoeste 0 973.2 -- 93
2020-11-16 21:00:00 11.9 6 Sur 8 Sur 0 973.1 -- 92
2020-11-16 20:00:00 12.7 6 Sur 9 Sudoeste 0 972.7 -- 91
2020-11-16 19:00:00 14.5 3 Sur 7 Noroeste 0 972.4 -- 85
2020-11-16 18:00:00 16.4 3 Noroeste 9 Noroeste 0 972.2 -- 78
2020-11-16 17:00:00 17.6 4 Noroeste 11 Noroeste 0 972 -- 76
2020-11-16 16:00:00 17.5 3 Noroeste 10 Norte 0 972.1 -- 78
2020-11-16 15:00:00 16.6 3 Nordeste 13 Norte 0 972.3 -- 81
2020-11-16 14:00:00 16.5 7 Norte 13 Norte 0 972.3 -- 84
2020-11-16 13:00:00 15.8 3 Sudoeste 10 Sudoeste 0 972.3 -- 87
2020-11-16 12:00:00 14.4 3 Oeste 14 Noroeste 0 973 -- 91
2020-11-16 11:00:00 13.4 6 Oeste 16 Noroeste 0 972.7 -- 97
2020-11-16 10:00:00 13.2 4 Norte 9 Norte 0 972.2 -- 97
2020-11-16 09:00:00 11.5 0 Calma 8 Sudoeste 0 971.5 -- 96
2020-11-16 08:00:00 11.3 3 Sudoeste 8 Sudoeste 0 971.1 -- 96
2020-11-16 07:00:00 11.9 4 Sur 11 Sur 0 970.8 -- 95
2020-11-16 06:00:00 13.6 8 Sur 12 Oeste 0 970.6 -- 95
2020-11-16 05:00:00 13.6 2 Noroeste 9 Sur 0 970.5 -- 95
2020-11-16 04:00:00 13.9 4 Sudoeste 10 Sudoeste 0 970.3 -- 94
2020-11-16 03:00:00 14.2 6 Sudoeste 11 Sur 0 970.3 -- 95
2020-11-16 02:00:00 14.3 6 Sudoeste 11 Sudoeste 0 970.5 -- 95
2020-11-16 01:00:00 14.8 5 Sudoeste 11 Sur 0 970.8 -- 95
2020-11-16 00:00:00 15.1 5 Sudoeste 8 Sur 0 971.1 -- 95
2020-11-15 23:00:00 15.4 5 Sur 8 Sur 0 970.2 -- 94
2020-11-15 22:00:00 16.4 7 Sur 10 Sur 0 969.5 -- 92
2020-11-15 21:00:00 17 3 Sudoeste 9 Oeste 0 969.7 -- 91
2020-11-15 20:00:00 17.2 3 Sudoeste 13 Noroeste 0 969.7 -- 91
2020-11-15 19:00:00 18.3 3 Noroeste 11 Sur 0 968.9 -- 81
2020-11-15 18:00:00 19 6 Sur 12 Sudoeste 0 968.4 -- 77
2020-11-15 17:00:00 19.8 8 Sudoeste 16 Sudoeste 0 968.5 -- 72
2020-11-15 16:00:00 20.2 13 Sudoeste 28 Sudoeste 0 968.4 -- 69
2020-11-15 15:00:00 20.4 13 Sudoeste 29 Oeste 0 968.3 -- 68
2020-11-15 14:00:00 20.1 14 Sudoeste 29 Sudoeste 0 968.6 -- 68
2020-11-15 13:00:00 19.6 12 Sur 28 Sudoeste 0 969.1 -- 71
2020-11-15 12:00:00 18.3 12 Sur 27 Sur 0 969.5 -- 78
2020-11-15 11:00:00 17.4 17 Sudeste 31 Sudeste 0 969.2 -- 82
2020-11-15 10:00:00 17.1 13 Sur 28 Sur 0 969.5 -- 83
2020-11-15 09:00:00 16.1 13 Sur 22 Sur 0 968.8 -- 89
2020-11-15 08:00:00 15.7 13 Sur 27 Sur 0 968.1 -- 90
2020-11-15 07:00:00 15.9 15 Sur 29 Sur 0 968 -- 89
2020-11-15 06:00:00 16.2 15 Sur 33 Sur 0 967.9 -- 88
2020-11-15 05:00:00 16.3 18 Sur 32 Sur 0 967.5 -- 89
2020-11-15 04:00:00 16.5 18 Sur 33 Sur 0 967.9 -- 90
2020-11-15 03:00:00 16.3 12 Sur 30 Sur 0 967.9 -- 91
2020-11-15 02:00:00 16.1 12 Sur 27 Sur 0 968.2 -- 93
2020-11-15 01:00:00 15.8 13 Sur 27 Sur 0 968.1 -- 93
2020-11-15 00:00:00 15.3 13 Sur 23 Sudeste 0 968.8 -- 94
2020-11-14 23:00:00 15.7 10 Sur 18 Sur 0 968.9 -- 90
2020-11-14 22:00:00 15.8 8 Sudeste 14 Sudeste 0 968.6 -- 89
2020-11-14 21:00:00 15.9 9 Sur 15 Sudeste 0 968.5 -- 86
2020-11-14 20:00:00 16.2 3 Sudoeste 18 Sudeste 0 968.7 -- 84
2020-11-14 19:00:00 16.5 4 Sur 7 Sudeste 0 968.2 -- 82
2020-11-14 18:00:00 16.8 2 Sudoeste 18 Oeste 0 967.7 -- 78
2020-11-14 17:00:00 17.3 10 Oeste 21 Sudoeste 0 967.5 -- 73
2020-11-14 16:00:00 17.2 12 Sudoeste 23 Sudoeste 0 967.2 -- 74
2020-11-14 15:00:00 16.7 13 Sudoeste 23 Oeste 0 967.3 -- 79
2020-11-14 14:00:00 17.1 7 Sur 18 Sur 0 967.1 -- 78
2020-11-14 13:00:00 16.2 9 Sur 20 Sur 0 967.6 -- 89
2020-11-14 12:00:00 16.1 11 Sur 22 Sudeste 0 967.8 -- 87
2020-11-14 11:00:00 14.8 11 Sudeste 19 Sudeste 0 967.6 -- 94
2020-11-14 10:00:00 13.9 8 Sudeste 15 Este 0.2 967.5 -- 95
2020-11-14 09:00:00 13.8 7 Sudeste 17 Sudeste 1.2 967.3 -- 95
2020-11-14 08:00:00 13.7 8 Sudeste 19 Sudeste 0 966.7 -- 94
2020-11-14 07:00:00 13.9 7 Sur 17 Sudeste 0 966.4 -- 94
2020-11-14 06:00:00 13.7 13 Sudeste 24 Sudeste 0 966 -- 93
2020-11-14 05:00:00 13.7 10 Sudeste 21 Sudeste 0 966 -- 91
2020-11-14 04:00:00 13.5 4 Sur 9 Sudeste 0 966.4 -- 91
2020-11-14 03:00:00 13.6 3 Este 12 Sudeste 0.2 966.8 -- 89
2020-11-14 02:00:00 13.7 4 Sur 11 Sudeste 0 967.2 -- 88
2020-11-14 01:00:00 14 6 Sudeste 21 Sudeste 0 967.4 -- 85
2020-11-14 00:00:00 14.2 10 Sudeste 19 Sudeste 0 967.6 -- 82
2020-11-13 23:00:00 14.4 12 Sudeste 19 Este 0 967.8 -- 81
2020-11-13 22:00:00 14.2 5 Sudeste 11 Sudeste 0 967.8 -- 82
2020-11-13 21:00:00 13.8 5 Sudeste 9 Sudeste 0 967.6 -- 85
2020-11-13 20:00:00 13.9 4 Sudeste 6 Este 0 967.6 -- 85
2020-11-13 19:00:00 14.1 4 Este 7 Nordeste 0 967.1 -- 83
2020-11-13 18:00:00 14.5 5 Norte 10 Sudeste 0 966.9 -- 81
2020-11-13 17:00:00 15.3 6 Sudeste 22 Este 0 966.7 -- 75
2020-11-13 16:00:00 15.3 7 Este 18 Este 0 966.5 -- 76
2020-11-13 15:00:00 15.3 6 Sudeste 17 Sudeste 0 967 -- 73
2020-11-13 14:00:00 15.5 7 Sudeste 20 Sudeste 0 967.2 -- 72
2020-11-13 13:00:00 15.2 12 Sudeste 23 Sudeste 0 967.9 -- 69
2020-11-13 12:00:00 14.9 8 Sudeste 18 Sudeste 0 968.5 -- 70
2020-11-13 11:00:00 13.8 8 Sudeste 17 Sudeste 0 968.5 -- 71
2020-11-13 10:00:00 12.1 7 Este 10 Este 0 968.2 -- 84
2020-11-13 09:00:00 10.8 0 Calma 7 Sur 0 967.5 -- 84
2020-11-13 08:00:00 11.1 3 Sur 10 Sur 0 966.9 -- 81
2020-11-13 07:00:00 11.1 5 Sudeste 15 Sudeste 0 966.8 -- 82
2020-11-13 06:00:00 9.5 4 Sudeste 13 Sudeste 0 966.7 -- 90
2020-11-13 05:00:00 8.6 3 Sur 8 Sudoeste 0 966.6 -- 93
2020-11-13 04:00:00 8.1 5 Sur 8 Sudoeste 0 966.9 -- 93
2020-11-13 03:00:00 8.4 6 Sur 10 Sudoeste 0 967 -- 93
2020-11-13 02:00:00 8.6 5 Sur 9 Sur 0 967.2 -- 93
2020-11-13 01:00:00 8.9 4 Sur 8 Sudeste 0 967.6 -- 92
2020-11-13 00:00:00 9.3 6 Sudoeste 10 Sur 0 967.8 -- 93
2020-11-12 23:00:00 9.7 5 Sur 9 Sudoeste 0 967.8 -- 92
2020-11-12 22:00:00 10.5 6 Sudoeste 9 Sudoeste 0 967.5 -- 91
2020-11-12 21:00:00 12.3 5 Sur 13 Este 0 967.4 -- 83
2020-11-12 20:00:00 13.7 7 Este 18 Este 0 967.1 -- 77
2020-11-12 19:00:00 14.5 9 Este 18 Nordeste 0 967.1 -- 76
2020-11-12 18:00:00 16.3 7 Nordeste 13 Este 0 967.1 -- 69
2020-11-12 17:00:00 17.1 8 Nordeste 24 Nordeste 0 967 -- 62
2020-11-12 16:00:00 17.4 15 Nordeste 23 Nordeste 0 966.7 -- 63
2020-11-12 15:00:00 17.1 10 Nordeste 19 Nordeste 0 967.4 -- 66
2020-11-12 14:00:00 16.5 6 Norte 13 Nordeste 0 968.1 -- 68
2020-11-12 13:00:00 15.3 6 Nordeste 11 Nordeste 0 968.9 -- 72
2020-11-12 12:00:00 14.7 8 Nordeste 16 Nordeste 0 969.6 -- 75
2020-11-12 11:00:00 13.2 7 Este 15 Este 0 969.9 -- 79
2020-11-12 10:00:00 11 4 Sudeste 14 Este 0 969.8 -- 92
2020-11-12 09:00:00 9.7 3 Este 6 Sudeste 0 969.6 -- 94
2020-11-12 08:00:00 9.2 4 Sur 8 Sudoeste 0 969.4 -- 94
2020-11-12 07:00:00 9.6 4 Sudoeste 8 Sudeste 0 969.2 -- 94
2020-11-12 06:00:00 10.1 3 Sudoeste 8 Sur 0 969.3 -- 93
2020-11-12 05:00:00 10.1 5 Sur 8 Sudoeste 0 969.4 -- 92
2020-11-12 04:00:00 10.3 5 Sur 12 Sudoeste 0 969.8 -- 90
2020-11-12 03:00:00 9.4 7 Sudoeste 10 Sudoeste 0 970.2 -- 92
2020-11-12 02:00:00 9.4 5 Sudoeste 10 Sudeste 0 970.2 -- 91
2020-11-12 01:00:00 9.8 6 Sudoeste 10 Sudeste 0 970.9 -- 92
2020-11-12 00:00:00 11.2 7 Sur 10 Sur 0 971.2 -- 90
2020-11-11 23:00:00 12.1 5 Sur 14 Sudoeste 0 971 -- 88
2020-11-11 22:00:00 11.9 7 Sudoeste 10 Sudoeste 0 970.8 -- 90
2020-11-11 21:00:00 12.5 6 Sur 9 Sudoeste 0 970.6 -- 90
2020-11-11 20:00:00 13.1 5 Sur 10 Sur 0 970.3 -- 88
2020-11-11 19:00:00 14.4 5 Sudeste 7 Sur 0 970.2 -- 80
2020-11-11 18:00:00 16.3 3 Norte 7 Noroeste 0 970 -- 74
2020-11-11 17:00:00 17.4 4 Nordeste 12 Este 0 970.1 -- 60
2020-11-11 16:00:00 17.6 6 Este 21 Este 0 970 -- 61
2020-11-11 15:00:00 18 6 Este 15 Este 0 970 -- 66
2020-11-11 14:00:00 16.9 5 Este 23 Este 0 970.8 -- 66
2020-11-11 13:00:00 16.8 12 Sudeste 24 Sudeste 0 971.5 -- 63
2020-11-11 12:00:00 16.6 11 Sudeste 20 Sudeste 0 971.7 -- 66
2020-11-11 11:00:00 15.2 8 Sudeste 19 Sudeste 0 971.9 -- 70
2020-11-11 10:00:00 13.1 10 Sudeste 17 Sudeste 0 972 -- 75
2020-11-11 09:00:00 8.5 4 Sur 11 Sudeste 0 971.6 -- 92
2020-11-11 08:00:00 9.3 6 Sur 12 Sur 0 971.6 -- 90
2020-11-11 07:00:00 9.9 9 Sur 12 Sur 0 971.3 -- 89
2020-11-11 06:00:00 9.8 8 Sur 12 Sur 0 971.5 -- 91
2020-11-11 05:00:00 9.7 6 Sur 14 Sudeste 0 971.7 -- 90
2020-11-11 04:00:00 11.5 9 Sudeste 18 Sudeste 0 971.8 -- 85
2020-11-11 03:00:00 9.3 7 Sudeste 14 Sudeste 0 972.3 -- 93
2020-11-11 02:00:00 8.9 5 Sur 12 Este 0 972.7 -- 94
2020-11-11 01:00:00 9.4 5 Sur 15 Sudeste 0 973.3 -- 91
2020-11-11 00:00:00 12 9 Este 15 Este 0 973.4 -- 88
2020-11-10 23:00:00 10.1 5 Sur 13 Este 0 973.7 -- 91
2020-11-10 22:00:00 10.2 4 Sur 8 Sudeste 0 973.6 -- 94
2020-11-10 21:00:00 11.2 4 Sur 9 Sudeste 0 973.2 -- 92
2020-11-10 20:00:00 12.4 5 Sur 14 Este 0 973.3 -- 89
2020-11-10 19:00:00 13.7 11 Este 15 Este 0 973.2 -- 83
2020-11-10 18:00:00 15.4 7 Nordeste 13 Nordeste 0 973.1 -- 76
2020-11-10 17:00:00 16.6 8 Nordeste 14 Nordeste 0 973.1 -- 69
2020-11-10 16:00:00 16.9 3 Norte 13 Nordeste 0 973.1 -- 63
2020-11-10 15:00:00 16.7 4 Norte 13 Nordeste 0 973.3 -- 66
2020-11-10 14:00:00 16.4 6 Nordeste 16 Nordeste 0 973.7 -- 69
2020-11-10 13:00:00 15.4 8 Nordeste 17 Nordeste 0 974.3 -- 76
2020-11-10 12:00:00 14.9 5 Norte 12 Norte 0 974.8 -- 80
2020-11-10 11:00:00 13.6 5 Nordeste 12 Norte 0 974.7 -- 82
2020-11-10 10:00:00 10.9 3 Sur 6 Sudoeste 0 974.4 -- 96
2020-11-10 09:00:00 7.6 5 Sudoeste 8 Sudoeste 0 974.1 -- 97
2020-11-10 08:00:00 7.2 5 Sur 10 Sudoeste 0 973.6 -- 97
2020-11-10 07:00:00 7.3 7 Sudoeste 8 Sudoeste 0 973.2 -- 97
2020-11-10 06:00:00 7.6 6 Sur 9 Sudoeste 0 973 -- 97
2020-11-10 05:00:00 7.5 6 Sudoeste 8 Sur 0 972.8 -- 96
2020-11-10 04:00:00 8.1 6 Sur 8 Sur 0 972.8 -- 96
2020-11-10 03:00:00 8.4 6 Sur 8 Sudoeste 0 972.9 -- 96
2020-11-10 02:00:00 8.6 6 Sur 9 Sur 0 973.1 -- 96
2020-11-10 01:00:00 9.1 7 Sudoeste 10 Sudoeste 0 973.3 -- 95
2020-11-10 00:00:00 9.7 7 Sudoeste 9 Sur 0 973.2 -- 95
2020-11-09 23:00:00 10.5 6 Sur 11 Sur 0 972.9 -- 94
2020-11-09 22:00:00 11.2 6 Sur 10 Sudoeste 0 972.9 -- 93
2020-11-09 21:00:00 11.7 6 Sur 9 Sudoeste 0 972.7 -- 93
2020-11-09 20:00:00 12 6 Sur 10 Sudoeste 0 972.4 -- 93
2020-11-09 19:00:00 13.4 4 Sur 6 Sur 0 972 -- 87
2020-11-09 18:00:00 16 2 Sudoeste 6 Oeste 0 971.5 -- 73
2020-11-09 17:00:00 15.5 3 Noroeste 8 Noroeste 0 971.3 -- 76
2020-11-09 16:00:00 15.5 3 Noroeste 7 Noroeste 0 971 -- 76
2020-11-09 15:00:00 14.6 3 Oeste 18 Noroeste 3.8 970.8 -- 90
2020-11-09 14:00:00 16 6 Sudeste 19 Oeste 0 970.8 -- 74
2020-11-09 13:00:00 15.2 5 Oeste 11 Oeste 0 971.2 -- 78
2020-11-09 12:00:00 14.4 2 Norte 6 Norte 0 971.5 -- 78
2020-11-09 11:00:00 14 2 Sur 8 Sudeste 0 971.5 -- 84
2020-11-09 10:00:00 12.5 3 Sudeste 11 Sudoeste 0 971.2 -- 95
2020-11-09 09:00:00 10.5 7 Sudoeste 10 Sudoeste 0 970.6 -- 96
2020-11-09 08:00:00 10.6 5 Sudeste 9 Sudeste 0 969.6 -- 96
2020-11-09 07:00:00 11 6 Sudeste 8 Sudeste 0 969.1 -- 96
2020-11-09 06:00:00 10.9 5 Sur 8 Sudoeste 0 968.6 -- 95
2020-11-09 05:00:00 10.7 4 Noroeste 12 Oeste 0 968.5 -- 94
2020-11-09 04:00:00 11.3 6 Sudoeste 10 Sudoeste 0 968.4 -- 93
2020-11-09 03:00:00 11.6 3 Sudoeste 19 Sudoeste 0 968.5 -- 92
2020-11-09 02:00:00 11 4 Sur 7 Sudoeste 0 968.3 -- 94
2020-11-09 01:00:00 11.7 4 Oeste 9 Noroeste 0 968.5 -- 93
2020-11-09 00:00:00 12.3 4 Sur 13 Sudoeste 0 968.4 -- 93
2020-11-08 23:00:00 13 7 Sudoeste 16 Sudoeste 0 968.2 -- 94
2020-11-08 22:00:00 13.6 9 Sudoeste 17 Sur 0 967.9 -- 92
2020-11-08 21:00:00 13.8 7 Sur 11 Sudoeste 0.2 967.6 -- 94
2020-11-08 20:00:00 14.1 5 Sur 11 Sur 0 967.5 -- 95
2020-11-08 19:00:00 14.2 5 Sur 20 Sur 0 967.2 -- 93
2020-11-08 18:00:00 14.5 12 Sur 23 Sur 3.6 966.9 -- 92
2020-11-08 17:00:00 14.8 14 Sur 27 Sur 0.2 966.7 -- 91
2020-11-08 16:00:00 15.2 12 Sur 23 Sur 3.8 966.8 -- 92
2020-11-08 15:00:00 14.7 12 Sur 31 Sur 1.2 966.8 -- 92
2020-11-08 14:00:00 15.9 21 Sudeste 39 Sudeste 0 967 -- 85
2020-11-08 13:00:00 15.8 18 Sur 42 Sur 0 967.8 -- 83
2020-11-08 12:00:00 15.8 18 Sur 40 Sur 0 968.5 -- 80
2020-11-08 11:00:00 15.2 22 Sur 42 Sudeste 0 968.5 -- 85
2020-11-08 10:00:00 14.5 20 Sur 38 Sur 0.2 968.3 -- 89
2020-11-08 09:00:00 12.7 18 Sur 40 Sur 0 968.1 -- 95
2020-11-08 08:00:00 12.7 19 Sur 34 Sur 0 967.8 -- 95
2020-11-08 07:00:00 12.4 15 Sur 32 Sudeste 0 967.8 -- 95
2020-11-08 06:00:00 12.4 18 Sur 36 Sur 0.2 968 -- 94
2020-11-08 05:00:00 12.7 16 Sur 29 Sur 0 968.2 -- 93
2020-11-08 04:00:00 13 13 Sur 32 Sur 0 968.5 -- 91
2020-11-08 03:00:00 13.5 16 Sur 35 Sudeste 0 968.5 -- 89
2020-11-08 02:00:00 13.4 18 Sur 35 Sur 0 968.6 -- 89
2020-11-08 01:00:00 12.7 15 Sudeste 28 Sudeste 0 969 -- 91
2020-11-08 00:00:00 13.6 15 Sudeste 31 Sudeste 0 968.9 -- 87
2020-11-07 23:00:00 13.7 18 Sudeste 32 Sudeste 0 968.8 -- 87
2020-11-07 22:00:00 12.8 8 Sudeste 21 Este 0 968.9 -- 86
2020-11-07 21:00:00 13.1 13 Este 21 Este 0 968.6 -- 84
2020-11-07 20:00:00 13.7 11 Este 21 Este 0 968.5 -- 80
2020-11-07 19:00:00 14.9 8 Sudeste 18 Sur 0 968.2 -- 73
2020-11-07 18:00:00 15.8 12 Sur 23 Sur 0 967.7 -- 69
2020-11-07 17:00:00 16.2 10 Sur 27 Sur 0 967.4 -- 66
2020-11-07 16:00:00 16.5 12 Sur 25 Sur 0 967.2 -- 65
2020-11-07 15:00:00 16.8 15 Sur 32 Sur 0 966.9 -- 61
2020-11-07 14:00:00 16.3 20 Sur 35 Sur 0 966.9 -- 64
2020-11-07 13:00:00 15.5 15 Sur 30 Sudoeste 0 966.9 -- 71
2020-11-07 12:00:00 15 10 Sur 24 Sudoeste 0 966.7 -- 75
2020-11-07 11:00:00 13.9 10 Sur 27 Sur 0 966.2 -- 79
2020-11-07 10:00:00 13 9 Sudoeste 27 Sudoeste 0 965.1 -- 84
2020-11-07 09:00:00 12.2 8 Sudoeste 15 Sudoeste 0 964 -- 88
2020-11-07 08:00:00 11.8 8 Sur 12 Sur 0 962.7 -- 93
2020-11-07 07:00:00 12 6 Sudoeste 13 Sudeste 0 961.8 -- 92
2020-11-07 06:00:00 11.9 8 Sur 19 Sur 0 960.8 -- 93
2020-11-07 05:00:00 12.1 13 Sur 22 Sur 0 960.1 -- 93
2020-11-07 04:00:00 12.1 10 Sur 24 Sudeste 0 959.8 -- 94
2020-11-07 03:00:00 11.9 11 Sur 22 Sur 0 959.3 -- 95
2020-11-07 02:00:00 12.1 6 Sudeste 26 Sudeste 0 958.7 -- 94
2020-11-07 01:00:00 12.2 11 Sudeste 21 Sudeste 0.8 959.8 -- 95
2020-11-07 00:00:00 12.1 10 Sudeste 22 Sur 0.2 960.1 -- 94
2020-11-06 23:00:00 12.4 12 Sudeste 23 Sudeste 0 959.8 -- 92
2020-11-06 22:00:00 12.5 12 Sur 21 Sudeste 0 959.7 -- 89
2020-11-06 21:00:00 12.1 11 Sur 26 Sudeste 0 959.1 -- 92
2020-11-06 20:00:00 11.9 14 Sudeste 34 Sur 0.2 959.4 -- 93
2020-11-06 19:00:00 12.6 17 Sudeste 45 Sur 0 958.4 -- 87
2020-11-06 18:00:00 12.4 9 Sur -- -- 10.2 958.2 -- 89
2020-11-06 17:00:00 14.9 4 Sudoeste 9 Este 1 957 -- 89
2020-11-06 16:00:00 15.2 3 Norte 12 Este 0 957.2 -- 88
2020-11-06 15:00:00 15.1 3 Sudeste 13 Este 0 957.9 -- 85
2020-11-06 14:00:00 14.1 4 Nordeste 10 Norte 0 958.5 -- 86
2020-11-06 13:00:00 13.8 7 Nordeste 15 Oeste 0 959 -- 91
2020-11-06 12:00:00 13.4 2 Sudoeste 9 Nordeste 0 960.1 -- 93
2020-11-06 11:00:00 13.3 6 Sudoeste 29 Este 0 959.8 0 88
2020-11-06 10:00:00 12.9 12 Este 27 Sudoeste 0.8 958.6 -- 90
2020-11-06 09:00:00 12.8 18 Sudoeste 32 Sudoeste 0.4 960.5 -- 89
2020-11-06 08:00:00 13.2 19 Sudeste 33 Sudeste 0.2 959.8 -- 86
2020-11-06 07:00:00 13.1 16 Sudeste 37 Este 0.4 959.4 -- 86
2020-11-06 06:00:00 13.4 20 Sudeste 36 Sudeste 0 960.1 -- 84
2020-11-06 05:00:00 13.1 22 Sudeste 36 Sudeste 0 960 -- 86
2020-11-06 04:00:00 12.6 19 Este 34 Este 0 960.4 -- 90
2020-11-06 03:00:00 12.3 20 Este 38 Sudeste 0 960.9 -- 92
2020-11-06 02:00:00 12.1 18 Este 36 Este 0 961.4 -- 93
2020-11-06 01:00:00 12.6 24 Este 51 Sudeste 5.6 961.3 -- 91
2020-11-06 00:00:00 11.9 11 Este 31 Este 8.4 961.8 -- 96
2020-11-05 23:00:00 11.7 13 Este 24 Este 2.8 961.5 -- 95
2020-11-05 22:00:00 12 4 Sudeste 15 Este 1.8 961.8 -- 94
2020-11-05 21:00:00 11.9 9 Este 16 Este 0 961.5 -- 94
2020-11-05 20:00:00 12.6 6 Nordeste 17 Este 1.4 961.5 -- 88
2020-11-05 19:00:00 12.9 13 Este 33 Este 0 961 -- 90
2020-11-05 18:00:00 14.1 15 Este 31 Este 0 960.5 -- 84
2020-11-05 17:00:00 14.6 19 Este 33 Este 0 960.3 -- 85
2020-11-05 16:00:00 14.6 13 Este 27 Este 0 960.3 -- 90
2020-11-05 15:00:00 14.2 19 Este 34 Este 2.8 960.6 -- 89
2020-11-05 14:00:00 13.5 13 Este 32 Este 1.4 961.1 -- 94
2020-11-05 13:00:00 14.2 19 Este 39 Sudeste 0 961.5 -- 89
2020-11-05 12:00:00 14.1 22 Sudeste 39 Este 0 961.8 -- 88
2020-11-05 11:00:00 13.2 24 Sudeste 41 Este 0 961.6 -- 91
2020-11-05 10:00:00 13 24 Este 47 Este 1 961.1 -- 93
2020-11-05 09:00:00 12.3 22 Este 43 Este 1.2 959.9 -- 94
2020-11-05 08:00:00 11 17 Este 32 Este 3.6 959 -- 97
2020-11-05 07:00:00 11 15 Nordeste 30 Este 2.2 959.6 -- 96
2020-11-05 06:00:00 11.5 19 Este 42 Este 4.2 960.1 -- 96
2020-11-05 05:00:00 11.1 22 Este 36 Nordeste 2.4 960.1 -- 96
2020-11-05 04:00:00 10.9 19 Este 34 Nordeste 3 960.2 -- 96
2020-11-05 03:00:00 11 16 Este 28 Nordeste 0.2 960.5 -- 95
2020-11-05 02:00:00 10.9 10 Este 35 Este 4 961.2 -- 94
2020-11-05 01:00:00 11 11 Este 28 Este 1.4 961.8 -- 95
2020-11-05 00:00:00 11.1 18 Este 38 Este 4.8 961.8 -- 95
2020-11-04 23:00:00 11 13 Este 31 Este 5.6 961.7 -- 94
2020-11-04 22:00:00 11.1 14 Este 31 Nordeste 0 961 -- 89
2020-11-04 21:00:00 10.7 17 Nordeste 31 Nordeste 0 961 -- 88
2020-11-04 20:00:00 10.7 9 Nordeste 23 Este 0 961 -- 88
2020-11-04 19:00:00 10.7 12 Nordeste 31 Nordeste 0 961 -- 87
2020-11-04 18:00:00 11 14 Nordeste 39 Nordeste 0 961.1 -- 84
2020-11-04 17:00:00 11.4 18 Nordeste 29 Nordeste 0 961.3 -- 79
2020-11-04 16:00:00 12 16 Nordeste 29 Nordeste 0 961.8 -- 70
2020-11-04 15:00:00 12.1 11 Nordeste 29 Nordeste 0 962.6 -- 69
2020-11-04 14:00:00 12 10 Norte 26 Norte 0 963.6 -- 64
2020-11-04 13:00:00 12.5 12 Norte 26 Norte 0 964.4 -- 62
2020-11-04 12:00:00 11.1 12 Norte 24 Noroeste 0 965.6 -- 69
2020-11-04 11:00:00 9.8 9 Noroeste 16 Noroeste 0 966.1 -1 73
2020-11-04 10:00:00 8.3 8 Oeste 18 Noroeste 0 966.8 -- 78
2020-11-04 09:00:00 7.8 10 Noroeste 16 Noroeste 0 967 -- 80
2020-11-04 08:00:00 8.5 8 Oeste 14 Oeste 0 967.1 -- 80
2020-11-04 07:00:00 8.8 9 Oeste 18 Noroeste 0 967.6 -- 80
2020-11-04 06:00:00 9.3 12 Noroeste 22 Noroeste 0 968.1 -- 80
2020-11-04 05:00:00 9.7 6 Oeste 12 Oeste 0 968.4 -- 79
2020-11-04 04:00:00 9.7 4 Sudoeste 10 Oeste 0 969 -- 79
2020-11-04 03:00:00 10.3 6 Oeste 14 Oeste 0 969.8 -- 77
2020-11-04 02:00:00 9.4 5 Oeste 10 Oeste 0 970.3 -- 83
2020-11-04 01:00:00 10.1 5 Sur 10 Oeste 0 971.1 -- 83
2020-11-04 00:00:00 9.8 6 Sudoeste 9 Sudoeste 0 971.8 -- 85
2020-11-03 23:00:00 10.3 4 Sudoeste 10 Oeste 0 972 -- 83
2020-11-03 22:00:00 10.7 5 Sudoeste 9 Sur 0 972 -- 80
2020-11-03 21:00:00 11.6 5 Sudoeste 7 Sur 0 972.1 -- 77
2020-11-03 20:00:00 14.4 3 Oeste 10 Noroeste 0 972.1 -- 63
2020-11-03 19:00:00 15.6 6 Noroeste 14 Noroeste 0 972.2 -- 58
2020-11-03 18:00:00 17.7 6 Noroeste 19 Noroeste 0 972 -- 52
2020-11-03 17:00:00 18.5 10 Noroeste 21 Noroeste 0 972.1 -- 48
2020-11-03 16:00:00 18.3 9 Noroeste 24 Noroeste 0 972.1 -- 47
2020-11-03 15:00:00 17.5 9 Noroeste 19 Noroeste 0 972.3 -- 45
2020-11-03 14:00:00 17 9 Noroeste 19 Norte 0 972.7 -- 45
2020-11-03 13:00:00 15.7 6 Noroeste 17 Noroeste 0 973.2 -- 48
2020-11-03 12:00:00 13.8 9 Noroeste 20 Noroeste 0 973.5 -- 52
2020-11-03 11:00:00 11.7 12 Oeste 20 Noroeste 0 973.5 -- 53
2020-11-03 10:00:00 10.8 13 Noroeste 23 Oeste 0 973.5 -- 55
2020-11-03 09:00:00 11.6 13 Oeste 23 Oeste 0 973 -- 51
2020-11-03 08:00:00 12.1 11 Oeste 17 Oeste 0 972.4 -- 70
2020-11-03 07:00:00 12.5 9 Oeste 18 Oeste 0 972 -- 86
2020-11-03 06:00:00 13.1 10 Oeste 19 Oeste 0 972 -- 88
2020-11-03 05:00:00 13.9 6 Oeste 18 Oeste 0 971.9 -- 82
2020-11-03 04:00:00 14 6 Oeste 16 Oeste 0 971.8 -- 87
2020-11-03 03:00:00 14.2 9 Oeste 19 Oeste 0 971.8 -- 89
2020-11-03 02:00:00 15.3 6 Oeste 14 Oeste 0 971.6 -- 91
2020-11-03 01:00:00 15.6 6 Oeste 18 Oeste 0 971.8 -- 93
2020-11-03 00:00:00 15.9 12 Oeste 22 Oeste 0 972 -- 94
2020-11-02 23:00:00 16.3 9 Oeste 23 Oeste 0 971.9 -- 93
2020-11-02 22:00:00 16.6 11 Oeste 23 Sudoeste 0 971.9 -- 91
2020-11-02 21:00:00 16.8 10 Oeste 20 Oeste 0 972.1 -- 89
2020-11-02 20:00:00 17 9 Oeste 18 Oeste 0 971.8 -- 87
2020-11-02 19:00:00 16.9 6 Oeste 15 Oeste 0 971.5 -- 85
2020-11-02 18:00:00 17.3 10 Oeste 16 Oeste 0 971.2 -- 82
2020-11-02 17:00:00 17.5 12 Oeste 19 Oeste 0 971.1 -- 81
2020-11-02 16:00:00 18.1 11 Noroeste 16 Noroeste 0 970.9 -- 77
2020-11-02 15:00:00 18.6 7 Noroeste 12 Noroeste 0 971 -- 76
2020-11-02 14:00:00 18.9 5 Noroeste 12 Noroeste 0 971.3 -- 75
2020-11-02 13:00:00 18.2 2 Sudeste 10 Noroeste 0 971.9 -- 76
2020-11-02 12:00:00 17.2 3 Norte 9 Noroeste 0 972.5 -- 82
2020-11-02 11:00:00 16.6 5 Norte 13 Noroeste 0 972.4 -- 85
2020-11-02 10:00:00 16 5 Oeste 12 Sudoeste 0 972.1 -- 87
2020-11-02 09:00:00 15 7 Oeste 10 Oeste 0 971.6 -- 92
2020-11-02 08:00:00 14.4 5 Sudoeste 7 Sudoeste 0 971.1 -- 92
2020-11-02 07:00:00 14.8 5 Sur 9 Sudoeste 0 971.1 -- 91
2020-11-02 06:00:00 15.2 5 Sudoeste 12 Sudoeste 0 971.1 -- 91
2020-11-02 05:00:00 15.6 7 Oeste 14 Oeste 0 971 -- 88
2020-11-02 04:00:00 15.6 4 Sudoeste 11 Sur 0 970.9 -- 89
2020-11-02 03:00:00 15.6 7 Sur 13 Oeste 0 971.3 -- 91
2020-11-02 02:00:00 15.9 7 Oeste 12 Oeste 0 971.5 -- 90
2020-11-02 01:00:00 15.9 4 Sudoeste 9 Sudoeste 0 971.8 -- 89
2020-11-02 00:00:00 16 4 Sudoeste 10 Sudoeste 0 972.1 -- 89
2020-11-01 23:00:00 16 3 Sur 10 Oeste 0 972.4 -- 89
2020-11-01 22:00:00 16.4 5 Sur 8 Sudoeste 0 972.3 -- 88
2020-11-01 21:00:00 16.8 5 Sudoeste 11 Oeste 0 972.1 -- 86
2020-11-01 20:00:00 17.1 6 Oeste 12 Oeste 0 972.2 -- 87
2020-11-01 19:00:00 17.7 6 Oeste 10 Oeste 0 971.9 -- 82
2020-11-01 18:00:00 18.3 5 Noroeste 16 Noroeste 0 972 -- 81
2020-11-01 17:00:00 19.1 11 Noroeste 20 Noroeste 0 972.1 -- 75
2020-11-01 16:00:00 19.8 7 Noroeste 17 Norte 0 972.3 -- 74
2020-11-01 15:00:00 20.4 6 Noroeste 14 Norte 0 972.7 -- 71
2020-11-01 14:00:00 19.5 4 Noroeste 16 Norte 0 973.1 -- 75
2020-11-01 13:00:00 17.2 4 Norte 11 Noroeste 0 973.7 -- 83
2020-11-01 12:00:00 16 4 Noroeste 11 Nordeste 0 974.3 -- 89
2020-11-01 11:00:00 14.9 3 Sudeste 10 Noroeste 0 974.2 -- 95
2020-11-01 10:00:00 13.1 4 Noroeste 8 Noroeste 0 974.3 -- 97
2020-11-01 09:00:00 11.4 2 Sur 8 Sudoeste 0 973.5 -- 94
2020-11-01 08:00:00 10.1 4 Sudoeste 10 Sudoeste 0 973.2 -- 93
2020-11-01 07:00:00 9.9 5 Sur 8 Sudoeste 0 972.8 -- 94
2020-11-01 06:00:00 10.1 3 Sudoeste 6 Sudoeste 0 972.8 -- 93
2020-11-01 05:00:00 10.7 4 Sudoeste 8 Sudoeste 0 973.1 -- 93
2020-11-01 04:00:00 10.9 5 Sudoeste 10 Sudoeste 0 973.4 -- 94
2020-11-01 03:00:00 11.5 8 Sudoeste 11 Sudoeste 0 973.3 -- 92
2020-11-01 02:00:00 11.7 6 Sur 10 Sur 0 973.6 -- 93
2020-11-01 01:00:00 12.1 7 Sudoeste 11 Sur 0 974 -- 91
2020-11-01 00:00:00 14.1 8 Sudoeste 12 Sudoeste 0 974.2 -- 89
2020-10-31 23:00:00 14.8 7 Sudoeste 10 Sudoeste 0 974.1 -- 83
2020-10-31 22:00:00 15.3 6 Sudoeste 12 Sudoeste 0 973.8 -- 79
2020-10-31 21:00:00 16.2 5 Sudoeste 14 Oeste 0 973.7 -- 77
2020-10-31 20:00:00 17.1 6 Sudoeste 15 Oeste 0 973.5 -- 76
2020-10-31 19:00:00 19 10 Oeste 17 Oeste 0 973.5 -- 67
2020-10-31 18:00:00 21.1 9 Oeste 18 Oeste 0 973 -- 60
2020-10-31 17:00:00 22 9 Noroeste 21 Oeste 0 972.6 -- 55
2020-10-31 16:00:00 22.1 9 Noroeste 22 Noroeste 0 972.6 -- 55
2020-10-31 15:00:00 22.5 12 Noroeste 24 Norte 0 973 -- 50
2020-10-31 14:00:00 22.3 8 Noroeste 14 Noroeste 0 973.2 -- 50
2020-10-31 13:00:00 20.7 5 Noroeste 16 Noroeste 0 974.2 -- 57
2020-10-31 12:00:00 19.1 4 Norte 9 Norte 0 974.5 -- 64
2020-10-31 11:00:00 17.7 5 Norte 10 Norte 0 974.5 -- 74
2020-10-31 10:00:00 16.2 3 Oeste 12 Sudeste 0 974 -- 79
2020-10-31 09:00:00 11.7 6 Sur 9 Sur 0 973.9 -- 95
2020-10-31 08:00:00 10.2 8 Sudoeste 11 Sudoeste 0 973.8 -- 94
2020-10-31 07:00:00 10.8 6 Sudoeste 10 Sudoeste 0 973.1 -- 92
2020-10-31 06:00:00 11.3 8 Sur 10 Sudoeste 0 972.7 -- 92
2020-10-31 05:00:00 10.9 7 Sur 11 Sur 0 972.5 -- 93
2020-10-31 04:00:00 11.4 6 Sur 13 Sudoeste 0 972.9 -- 91
2020-10-31 03:00:00 11.2 7 Sur 10 Sudoeste 0 972.6 -- 91
2020-10-31 02:00:00 12.7 7 Sur 13 Sudoeste 0 972.9 -- 87
2020-10-31 01:00:00 12.2 6 Sur 12 Sudoeste 0 972.6 -- 89
2020-10-31 00:00:00 12.8 9 Sudoeste 12 Sudoeste 0 973 -- 88
2020-10-30 23:00:00 13.6 7 Sur 10 Sudoeste 0 973 -- 85
2020-10-30 22:00:00 14 8 Sudoeste 11 Sudoeste 0 972.8 -- 84
2020-10-30 21:00:00 15.1 6 Sur 9 Sudoeste 0 972.6 -- 80
2020-10-30 20:00:00 16.9 5 Sur 11 Sur 0 972.4 -- 73
2020-10-30 19:00:00 19.6 4 Sur 9 Este 0 972 -- 63
2020-10-30 18:00:00 21.9 7 Nordeste 15 Este 0 971.8 -- 55
2020-10-30 17:00:00 22.8 8 Este 14 Este 0 971.7 -- 48
2020-10-30 16:00:00 23 6 Este 15 Este 0 971.8 -- 43
2020-10-30 15:00:00 23 5 Sudeste 22 Norte 0 972.1 -- 50
2020-10-30 14:00:00 21.7 9 Nordeste 17 Nordeste 0 972.6 -- 58
2020-10-30 13:00:00 20.8 7 Nordeste 15 Nordeste 0 973.4 -- 60
2020-10-30 12:00:00 20.1 10 Este 19 Este 0 973.7 -- 60
2020-10-30 11:00:00 17.7 8 Nordeste 14 Este 0 973.7 -- 74
2020-10-30 10:00:00 14.8 4 Norte 9 Nordeste 0 973.8 -- 85
2020-10-30 09:00:00 12.4 3 Nordeste 5 Nordeste 0 973.4 -- 91
2020-10-30 08:00:00 11.3 2 Oeste 4 Sudoeste 0 972.7 -- 92
2020-10-30 07:00:00 12.1 2 Norte 5 Sudoeste 0 972.6 -- 90
2020-10-30 06:00:00 13.3 2 Noroeste 12 Sur 0 972.4 -- 85
2020-10-30 05:00:00 14.6 6 Sur 10 Sudeste 0 972.4 -- 81
2020-10-30 04:00:00 13 6 Sur 13 Sur 0 972.4 -- 86
2020-10-30 03:00:00 13.5 7 Sudoeste 10 Sur 0 972.6 -- 85
2020-10-30 02:00:00 14.9 6 Sur 14 Sur 0 972.6 -- 80
2020-10-30 01:00:00 14.6 8 Sur 14 Sur 0 972.9 -- 84
2020-10-30 00:00:00 12.2 6 Sur 8 Sur 0 973.1 -- 91
2020-10-29 23:00:00 13.6 4 Sur 12 Sudeste 0 973.2 -- 86
2020-10-29 22:00:00 13.6 8 Sudeste 10 Sudeste 0 973 -- 89
2020-10-29 21:00:00 14.4 4 Sur 14 Este 0 972.9 -- 84
2020-10-29 20:00:00 16.6 8 Este 13 Este 0 972.9 -- 76
2020-10-29 19:00:00 17.6 8 Este 17 Este 0 972.6 -- 73
2020-10-29 18:00:00 19.9 9 Nordeste 15 Nordeste 0 972.2 -- 65
2020-10-29 17:00:00 21.2 7 Sudeste 19 Sudeste 0 972.1 -- 56
2020-10-29 16:00:00 20.6 10 Este 22 Este 0 972.1 -- 64
2020-10-29 15:00:00 19.3 12 Nordeste 23 Este 0 972.6 -- 71
2020-10-29 14:00:00 19.7 10 Este 22 Este 0 973 -- 65
2020-10-29 13:00:00 18.4 11 Sudeste 25 Sudeste 0 973.7 -- 68
2020-10-29 12:00:00 15.7 6 Nordeste 13 Nordeste 0 974.1 -- 87
2020-10-29 11:00:00 14.4 4 Norte 9 Nordeste 0 974.2 -- 89
2020-10-29 10:00:00 13.7 5 Nordeste 10 Nordeste 0 974.3 -- 88
2020-10-29 09:00:00 12 2 Este 8 Este 0 973.9 -- 92
2020-10-29 08:00:00 11.7 5 Sur 8 Sudoeste 0 973.3 -- 91
2020-10-29 07:00:00 11.6 3 Oeste 5 Noroeste 0 973.1 -- 91
2020-10-29 06:00:00 11.8 0 Calma 8 Sur 0 972.9 -- 90
2020-10-29 05:00:00 11.2 4 Sudoeste 11 Sur 0 972.7 -- 91
2020-10-29 04:00:00 10.1 7 Sur 10 Sudoeste 0 972.4 -- 94
2020-10-29 03:00:00 10.4 6 Sur 11 Sudeste 0 972.6 -- 93
2020-10-29 02:00:00 10.5 6 Sur 9 Sudoeste 0 972.8 -- 93
2020-10-29 01:00:00 10.8 6 Sur 9 Sur 0 972.6 -- 93
2020-10-29 00:00:00 11.8 6 Sur 9 Sur 0 972.7 -- 92
2020-10-28 23:00:00 13.4 4 Sudoeste 7 Sudoeste 0 972.8 -- 88
2020-10-28 22:00:00 15.2 3 Sur 9 Sudoeste 0 972.5 -- 82
2020-10-28 21:00:00 15.6 5 Sudoeste 10 Sudoeste 0 972.4 -- 81
2020-10-28 20:00:00 15.9 4 Sudoeste 10 Oeste 0 972.1 -- 81
2020-10-28 19:00:00 15.9 6 Oeste 12 Oeste 0 971.9 -- 85
2020-10-28 18:00:00 15.7 5 Oeste 19 Oeste 0 971.2 -- 91
2020-10-28 17:00:00 17.1 11 Oeste 18 Oeste 0 970.9 -- 77
2020-10-28 16:00:00 18.1 9 Sudoeste 21 Sudoeste 0 970.6 -- 74
2020-10-28 15:00:00 17.6 9 Oeste 20 Oeste 0 970.8 -- 76
2020-10-28 14:00:00 16.8 12 Oeste 21 Noroeste 0 971.2 -- 77
2020-10-28 13:00:00 16.9 8 Oeste 24 Sudoeste 0 971.6 -- 79
2020-10-28 12:00:00 16.5 14 Sudoeste 25 Oeste 0 971.7 -- 83
2020-10-28 11:00:00 15.9 12 Sudoeste 24 Sudoeste 0 971 -- 85
2020-10-28 10:00:00 14.5 3 Sudeste 8 Sudeste 0 970.7 -- 91
2020-10-28 09:00:00 13.2 6 Sudeste 9 Sur 0.4 970 -- 95
2020-10-28 08:00:00 13 4 Oeste 9 Sur 0 969.6 -- 92
2020-10-28 07:00:00 13.1 5 Sur 10 Sudeste 0 969.1 -- 90
2020-10-28 06:00:00 12.7 3 Sur 8 Sudeste 0 968.7 -- 91
2020-10-28 05:00:00 12.4 4 Sudeste 10 Sur 0 968.6 -- 91
2020-10-28 04:00:00 12.2 4 Sur 10 Sudeste 0 968.7 -- 92
2020-10-28 03:00:00 12.5 3 Sur 17 Sur 0 969 -- 89
2020-10-28 02:00:00 12.8 10 Sur 23 Sudoeste 0 969 -- 89
2020-10-28 01:00:00 13.2 11 Sudoeste 21 Sudoeste 0 969.3 -- 85
2020-10-28 00:00:00 13 8 Sudoeste 15 Sudoeste 0 969.5 -- 84
2020-10-27 23:00:00 13.1 8 Sudoeste 16 Sudoeste 0 969.5 -- 83
2020-10-27 22:00:00 13.2 9 Sur 19 Sudoeste 0 969.3 -- 82
2020-10-27 21:00:00 13.3 12 Sur 21 Sudoeste 0 969 -- 80
2020-10-27 20:00:00 13.8 9 Sudoeste 21 Sudoeste 0 969 -- 75
2020-10-27 19:00:00 14 10 Sur 18 Sudoeste 0 968.9 -- 73
2020-10-27 18:00:00 14.5 7 Sudoeste 22 Sudoeste 0 968.7 -- 70
2020-10-27 17:00:00 14.6 11 Sudoeste 23 Oeste 0 968.9 -- 70
2020-10-27 16:00:00 14.8 13 Sudoeste 27 Sudoeste 0 968.9 -- 68
2020-10-27 15:00:00 14.6 14 Oeste 27 Oeste 0 969.1 -- 67
2020-10-27 14:00:00 14.7 13 Oeste 28 Sudoeste 0 969.5 -- 65
2020-10-27 13:00:00 14.5 13 Sudoeste 25 Oeste 0 970 -- 65
2020-10-27 12:00:00 13.7 12 Sudoeste 26 Oeste 0 970.2 -- 67
2020-10-27 11:00:00 13.2 12 Sudoeste 26 Sudoeste 0 970 -- 71
2020-10-27 10:00:00 11.9 12 Sudoeste 23 Sudoeste 0 970.1 -- 75
2020-10-27 09:00:00 9.4 10 Sudoeste 18 Sur 0 969.8 -- 83
2020-10-27 08:00:00 8.6 9 Sur 13 Sudoeste 0 969.4 -- 86
2020-10-27 07:00:00 8.5 8 Sudoeste 13 Sudoeste 0 969.3 -- 87
2020-10-27 06:00:00 8.4 8 Sudoeste 13 Oeste 0 969.4 -- 86
2020-10-27 05:00:00 7.7 5 Sudoeste 11 Oeste 0 969.4 -- 87
2020-10-27 04:00:00 7.3 8 Sudoeste 10 Sudoeste 0 969.5 -- 89
2020-10-27 03:00:00 8.1 6 Sudoeste 14 Sudoeste 0 970.1 -- 86
2020-10-27 02:00:00 8.9 8 Sudoeste 17 Oeste 0 970.3 -- 82
2020-10-27 01:00:00 8.7 7 Sudoeste 12 Sudoeste 0 970.4 -- 82
2020-10-27 00:00:00 9.2 7 Oeste 17 Oeste 0 970.6 -- 81